CheckWX is a tool to help pilots better visualize weather data.  It is not intended as a substitute for an official pre-flight weather briefing.

06:09:07 UTC

FBKE METAR
Kasane Airport
Kasane, Botswana
Current

1 hour ago

FBKE 250500Z 13003KT CAVOK 18/14 Q1018
Observed
Mar-25 @ 05:00 UTC
Wind
  • 130° at 3 KTS
Visibility
10,000+ meters
Flight Rules
VFR
Cloud Levels
  • Clear skies
Temperature
18°C / 64°F
Dewpoint
14°C / 57°F
Humidity
78%
Altimeter
30.06" Hg
Pressure
1017.92 hPa
Previous

2 hours ago

FBKE 250400Z 15003KT 070V170 CAVOK 17/13 Q1017
Observed
Mar-25 @ 04:00 UTC
Wind
  • 150° at 3 KTS
Visibility
10,000+ meters
Flight Rules
VFR
Cloud Levels
  • Clear skies
Temperature
17°C / 63°F
Dewpoint
13°C / 55°F
Humidity
77%
Altimeter
30.03" Hg
Pressure
1016.92 hPa
Previous

3 hours ago

FBKE 250300Z 12002KT CAVOK 15/14 Q1016
Observed
Mar-25 @ 03:00 UTC
Wind
  • 120° at 2 KTS
Visibility
10,000+ meters
Flight Rules
VFR
Cloud Levels
  • Clear skies
Temperature
15°C / 59°F
Dewpoint
14°C / 57°F
Humidity
94%
Altimeter
30" Hg
Pressure
1015.92 hPa